Time;durP1;ratioP1;P1;durP2;ratioP2;P2;SDS_P1;SDS_P2;PMS_P1;PMS_P2;Temp;Humidity;BMP_temperature;BMP_pressure;BME280_temperature;BME280_humidity;BME280_pressure;Samples;Min_cycle;Max_cycle;Signal;HPM_P1;HPM_P2
2022/04/17 00:00:10;;;;;;;23.47;12.23;;;;;;;-145.18;100.00;60484.78;5024970;28;20021;-70
2022/04/17 00:02:36;;;;;;;23.43;13.27;;;;;;;-145.18;100.00;60484.78;5026560;28;20756;-70
2022/04/17 00:05:03;;;;;;;21.43;11.73;;;;;;;-145.18;100.00;60484.78;5019259;28;20112;-70
2022/04/17 00:07:29;;;;;;;20.30;11.57;;;;;;;-145.18;100.00;60484.78;5030955;28;20497;-70
2022/04/17 00:09:54;;;;;;;22.63;12.40;;;;;;;-145.18;100.00;60484.78;5023287;28;20041;-70
2022/04/17 00:12:23;;;;;;;24.40;12.47;;;;;;;-145.18;100.00;60484.78;5030118;28;20044;-70
2022/04/17 00:14:49;;;;;;;19.30;11.67;;;;;;;-145.18;100.00;60484.78;5012926;28;20033;-70
2022/04/17 00:17:14;;;;;;;20.33;11.87;;;;;;;-145.18;100.00;60484.78;5025774;28;20040;-70
2022/04/17 00:19:40;;;;;;;20.57;11.90;;;;;;;-145.18;100.00;60484.78;5020136;28;20510;-70
2022/04/17 00:22:05;;;;;;;19.87;11.90;;;;;;;-145.18;100.00;60484.78;5025820;28;20128;-70
2022/04/17 00:24:30;;;;;;;22.27;11.57;;;;;;;-145.18;100.00;60484.78;5024158;28;20029;-70
2022/04/17 00:26:59;;;;;;;23.60;12.07;;;;;;;-145.18;100.00;60484.78;5023968;28;20029;-70
2022/04/17 00:29:25;;;;;;;18.00;10.63;;;;;;;-145.18;100.00;60484.78;5023415;28;20057;-70
2022/04/17 00:31:51;;;;;;;20.70;11.37;;;;;;;-145.18;100.00;60484.78;5024294;28;20442;-70
2022/04/17 00:34:16;;;;;;;19.77;11.43;;;;;;;-145.18;100.00;60484.78;5018669;28;20026;-70
2022/04/17 00:36:41;;;;;;;21.43;11.87;;;;;;;-145.18;100.00;60484.78;5028078;28;20110;-70
2022/04/17 00:39:07;;;;;;;22.63;12.03;;;;;;;-145.18;100.00;60484.78;5029122;28;20469;-70
2022/04/17 00:41:32;;;;;;;21.43;11.83;;;;;;;-145.18;100.00;60484.78;5027648;28;20443;-70
2022/04/17 00:43:57;;;;;;;21.27;12.60;;;;;;;-145.18;100.00;60484.78;5020295;28;20060;-70
2022/04/17 00:46:23;;;;;;;20.60;12.10;;;;;;;-145.18;100.00;60484.78;5023386;28;20565;-70
2022/04/17 00:48:48;;;;;;;20.40;11.83;;;;;;;-145.18;100.00;60484.78;5024027;28;20452;-70
2022/04/17 00:51:14;;;;;;;21.63;11.90;;;;;;;-145.18;100.00;60484.78;5023429;28;20116;-70
2022/04/17 00:53:40;;;;;;;19.67;11.30;;;;;;;-145.18;100.00;60484.78;5018918;28;20673;-70
2022/04/17 00:56:06;;;;;;;19.17;11.63;;;;;;;-145.18;100.00;60484.78;5022280;28;20456;-70
2022/04/17 00:58:33;;;;;;;24.50;11.43;;;;;;;-145.18;100.00;60484.78;5029121;28;20457;-70
2022/04/17 01:00:59;;;;;;;20.23;11.43;;;;;;;-145.18;100.00;60484.78;5021644;28;20033;-70
2022/04/17 01:03:25;;;;;;;23.33;13.00;;;;;;;-145.18;100.00;60484.78;5024958;28;20041;-70
2022/04/17 01:05:51;;;;;;;20.37;11.03;;;;;;;-145.18;100.00;60484.78;5016765;28;20033;-70
2022/04/17 01:08:16;;;;;;;22.80;12.07;;;;;;;-145.18;100.00;60484.78;5003979;28;20404;-70
2022/04/17 01:10:42;;;;;;;22.47;12.60;;;;;;;-145.18;100.00;60484.78;5018950;28;20033;-70
2022/04/17 01:13:10;;;;;;;24.07;12.57;;;;;;;-145.18;100.00;60484.78;5024028;28;20033;-70
2022/04/17 01:15:37;;;;;;;21.00;12.17;;;;;;;-145.18;100.00;60484.78;5022038;28;20536;-70
2022/04/17 01:18:06;;;;;;;22.80;12.07;;;;;;;-145.18;100.00;60484.78;5024951;28;20037;-70
2022/04/17 01:20:31;;;;;;;20.67;12.50;;;;;;;-145.18;100.00;60484.78;5022608;28;20397;-70
2022/04/17 01:28:27;;;;;;;20.03;12.00;;;;;;;-145.18;100.00;60484.78;5027632;28;20040;-70
2022/04/17 01:30:56;;;;;;;21.07;11.83;;;;;;;-145.18;100.00;60484.78;5026848;28;20465;-70
2022/04/17 01:33:23;;;;;;;23.20;13.90;;;;;;;-145.18;100.00;60484.78;5022986;28;20036;-70
2022/04/17 01:35:48;;;;;;;26.73;13.37;;;;;;;-145.18;100.00;60484.78;5027234;28;20109;-70
2022/04/17 01:38:14;;;;;;;26.63;15.27;;;;;;;-145.18;100.00;60484.78;5020141;28;20033;-69
2022/04/17 01:40:40;;;;;;;31.53;15.63;;;;;;;-145.18;100.00;60484.78;5016952;28;20084;-69
2022/04/17 01:43:09;;;;;;;30.20;16.27;;;;;;;-145.18;100.00;60484.78;5029487;28;20030;-69
2022/04/17 01:45:35;;;;;;;26.03;14.00;;;;;;;-145.18;100.00;60484.78;5019461;28;20147;-69
2022/04/17 01:48:00;;;;;;;27.23;14.43;;;;;;;-145.18;100.00;60484.78;5014604;28;20569;-69
2022/04/17 01:50:27;;;;;;;25.77;14.33;;;;;;;-145.18;100.00;60484.78;5025851;28;20052;-70
2022/04/17 01:52:53;;;;;;;24.80;13.50;;;;;;;-145.18;100.00;60484.78;5030774;28;20076;-70
2022/04/17 01:55:18;;;;;;;23.93;13.93;;;;;;;-145.18;100.00;60484.78;5027703;28;20029;-70
2022/04/17 01:57:44;;;;;;;24.07;13.60;;;;;;;-145.18;100.00;60484.78;5028604;28;20037;-69
2022/04/17 02:00:10;;;;;;;22.97;13.40;;;;;;;-145.18;100.00;60484.78;5019865;28;20046;-70
2022/04/17 02:02:35;;;;;;;25.17;13.37;;;;;;;-145.18;100.00;60484.78;5021201;28;20025;-70
2022/04/17 02:05:01;;;;;;;24.87;13.30;;;;;;;-145.18;100.00;60484.78;5008075;28;20540;-70
2022/04/17 02:07:26;;;;;;;25.50;13.20;;;;;;;-145.18;100.00;60484.78;5031791;28;20424;-70
2022/04/17 02:09:51;;;;;;;24.67;13.63;;;;;;;-145.18;100.00;60484.78;5020038;28;20113;-70
2022/04/17 02:12:17;;;;;;;24.03;13.73;;;;;;;-145.18;100.00;60484.78;5013416;28;20038;-70
2022/04/17 02:14:42;;;;;;;23.77;13.53;;;;;;;-145.18;100.00;60484.78;5023407;28;20461;-70
2022/04/17 02:17:08;;;;;;;25.17;14.33;;;;;;;-145.18;100.00;60484.78;5029036;28;20481;-70
2022/04/17 02:19:33;;;;;;;23.47;14.17;;;;;;;-145.18;100.00;60484.78;5023583;28;20428;-70
2022/04/17 02:21:58;;;;;;;26.03;14.50;;;;;;;-145.18;100.00;60484.78;5027231;28;20461;-70
2022/04/17 02:24:24;;;;;;;23.00;12.73;;;;;;;-145.18;100.00;60484.78;5023948;28;20083;-70
2022/04/17 02:26:49;;;;;;;23.57;14.40;;;;;;;-145.18;100.00;60484.78;5029591;28;20033;-70
2022/04/17 02:29:15;;;;;;;25.33;13.67;;;;;;;-145.18;100.00;60484.78;5007272;28;21714;-70
2022/04/17 02:31:40;;;;;;;24.80;13.30;;;;;;;-145.18;100.00;60484.78;5028578;28;20040;-70
2022/04/17 02:34:07;;;;;;;20.53;12.67;;;;;;;-145.18;100.00;60484.78;5026034;28;20025;-70
2022/04/17 02:36:33;;;;;;;22.13;13.23;;;;;;;-145.18;100.00;60484.78;5026476;28;20488;-70
2022/04/17 02:38:58;;;;;;;22.03;13.43;;;;;;;-145.18;100.00;60484.78;5025020;28;20033;-70
2022/04/17 02:41:24;;;;;;;25.27;13.80;;;;;;;-145.18;100.00;60484.78;5025582;28;20033;-69
2022/04/17 02:43:49;;;;;;;23.80;13.47;;;;;;;-145.18;100.00;60484.78;5025952;28;20025;-70
2022/04/17 02:47:42;;;;;;;25.97;13.67;;;;;;;-145.18;100.00;60484.78;5025143;28;20457;-70
2022/04/17 02:49:00;;;;;;;25.10;13.67;;;;;;;-145.18;100.00;60484.78;5016605;28;20056;-70
2022/04/17 02:51:25;;;;;;;23.53;13.43;;;;;;;-145.18;100.00;60484.78;5025751;28;20033;-70
2022/04/17 02:53:51;;;;;;;25.47;15.23;;;;;;;-145.18;100.00;60484.78;5024125;28;20036;-69
2022/04/17 02:56:16;;;;;;;23.73;14.23;;;;;;;-145.18;100.00;60484.78;5023403;28;20044;-69
2022/04/17 02:58:41;;;;;;;24.53;14.20;;;;;;;-145.18;100.00;60484.78;5009976;28;20038;-70
2022/04/17 03:06:35;;;;;;;30.00;16.70;;;;;;;-145.18;100.00;60484.78;5028397;28;20036;-70
2022/04/17 03:09:00;;;;;;;27.93;15.43;;;;;;;-145.18;100.00;60484.78;5027473;28;20401;-69
2022/04/17 03:11:25;;;;;;;25.93;14.17;;;;;;;-145.18;100.00;60484.78;5028005;28;20029;-69
2022/04/17 03:13:52;;;;;;;23.00;13.10;;;;;;;-145.18;100.00;60484.78;5027825;28;20112;-69
2022/04/17 03:16:17;;;;;;;27.23;14.43;;;;;;;-145.18;100.00;60484.78;5024764;28;20022;-69
2022/04/17 03:18:43;;;;;;;23.83;13.57;;;;;;;-145.18;100.00;60484.78;5021190;28;20040;-69
2022/04/17 03:21:08;;;;;;;22.20;12.87;;;;;;;-145.18;100.00;60484.78;5024393;28;20036;-69
2022/04/17 03:23:34;;;;;;;25.07;13.20;;;;;;;-145.18;100.00;60484.78;5027210;28;20025;-69
2022/04/17 03:25:59;;;;;;;22.33;13.40;;;;;;;-145.18;100.00;60484.78;5028630;28;20505;-69
2022/04/17 03:28:25;;;;;;;23.63;13.67;;;;;;;-145.18;100.00;60484.78;5027845;28;20397;-69
2022/04/17 03:30:50;;;;;;;23.40;13.37;;;;;;;-145.18;100.00;60484.78;5027127;28;20152;-69
2022/04/17 03:33:16;;;;;;;26.00;14.50;;;;;;;-145.18;100.00;60484.78;5013085;28;20045;-69
2022/04/17 03:35:41;;;;;;;24.00;14.03;;;;;;;-145.18;100.00;60484.78;5025321;28;20036;-69
2022/04/17 03:38:09;;;;;;;30.77;13.97;;;;;;;-145.18;100.00;60484.78;5027316;28;20025;-69
2022/04/17 03:40:34;;;;;;;24.43;14.27;;;;;;;-145.18;100.00;60484.78;5023843;28;20026;-69
2022/04/17 03:43:00;;;;;;;26.77;15.43;;;;;;;-145.18;100.00;60484.78;5031020;28;20033;-69
2022/04/17 03:45:25;;;;;;;25.13;15.23;;;;;;;-145.18;100.00;60484.78;5027646;28;20785;-69
2022/04/17 03:47:51;;;;;;;26.10;15.33;;;;;;;-145.18;100.00;60484.78;5027522;28;21242;-69
2022/04/17 03:50:16;;;;;;;25.37;15.00;;;;;;;-145.18;100.00;60484.78;5018519;28;20060;-69
2022/04/17 03:52:44;;;;;;;29.73;16.03;;;;;;;-145.18;100.00;60484.78;5026106;28;20101;-69
2022/04/17 03:55:11;;;;;;;24.70;15.17;;;;;;;-145.18;100.00;60484.78;5021479;28;20080;-69
2022/04/17 03:57:36;;;;;;;26.77;15.93;;;;;;;-145.18;100.00;60484.78;5024050;28;20377;-69
2022/04/17 04:00:05;;;;;;;24.30;14.33;;;;;;;-145.18;100.00;60484.78;5026265;28;20087;-70
2022/04/17 04:02:30;;;;;;;27.70;15.10;;;;;;;-145.18;100.00;60484.78;5029546;28;20033;-70
2022/04/17 04:04:56;;;;;;;25.57;15.20;;;;;;;-145.18;100.00;60484.78;5025154;28;20029;-70
2022/04/17 04:07:22;;;;;;;25.70;15.20;;;;;;;-145.18;100.00;60484.78;5028196;28;20508;-70
2022/04/17 04:09:48;;;;;;;23.07;14.07;;;;;;;-145.18;100.00;60484.78;5026939;28;20038;-70
2022/04/17 04:12:13;;;;;;;28.03;14.63;;;;;;;-145.18;100.00;60484.78;5027813;28;20033;-70
2022/04/17 04:14:38;;;;;;;26.43;14.47;;;;;;;-145.18;100.00;60484.78;5028971;28;20496;-70
2022/04/17 04:17:04;;;;;;;26.60;15.73;;;;;;;-145.18;100.00;60484.78;5027714;28;20079;-70
2022/04/17 04:19:29;;;;;;;26.40;15.60;;;;;;;-145.18;100.00;60484.78;5020049;28;20056;-70
2022/04/17 04:21:55;;;;;;;28.63;16.13;;;;;;;-145.18;100.00;60484.78;5026029;28;20450;-70
2022/04/17 04:24:20;;;;;;;27.87;14.67;;;;;;;-145.18;100.00;60484.78;5027219;28;22099;-70
2022/04/17 04:29:30;;;;;;;27.93;15.80;;;;;;;-145.18;100.00;60484.78;5025357;28;20099;-70
2022/04/17 04:31:55;;;;;;;23.30;15.33;;;;;;;-145.18;100.00;60484.78;5026082;28;20421;-70
2022/04/17 04:34:20;;;;;;;27.07;15.00;;;;;;;-145.18;100.00;60484.78;5020307;28;20017;-70
2022/04/17 04:36:46;;;;;;;28.73;18.00;;;;;;;-145.18;100.00;60484.78;5022739;28;20082;-70
2022/04/17 04:39:11;;;;;;;34.33;17.60;;;;;;;-145.18;100.00;60484.78;5026477;28;20112;-70
2022/04/17 04:41:36;;;;;;;28.47;18.30;;;;;;;-145.18;100.00;60484.78;5030359;28;20057;-70
2022/04/17 04:44:02;;;;;;;31.03;20.60;;;;;;;-145.18;100.00;60484.78;5028249;28;20034;-70
2022/04/17 04:46:27;;;;;;;30.40;19.27;;;;;;;-145.18;100.00;60484.78;5027221;28;20052;-70
2022/04/17 04:51:36;;;;;;;28.37;18.00;;;;;;;-145.18;100.00;60484.78;5028578;28;20040;-70
2022/04/17 04:54:02;;;;;;;23.63;15.03;;;;;;;-145.18;100.00;60484.78;5026196;28;20021;-70
2022/04/17 04:56:27;;;;;;;27.90;15.20;;;;;;;-145.18;100.00;60484.78;5024207;28;20076;-69
2022/04/17 04:58:53;;;;;;;27.33;14.90;;;;;;;-145.18;100.00;60484.78;5025860;28;20025;-69
2022/04/17 05:01:18;;;;;;;27.07;14.83;;;;;;;-145.18;100.00;60484.78;5029386;28;20454;-69
2022/04/17 05:03:44;;;;;;;23.47;14.50;;;;;;;-145.18;100.00;60484.78;5028039;28;20034;-69
2022/04/17 05:06:09;;;;;;;23.17;14.13;;;;;;;-145.18;100.00;60484.78;5031821;28;20025;-69
2022/04/17 05:08:35;;;;;;;22.43;13.27;;;;;;;-145.18;100.00;60484.78;5031403;28;20487;-70
2022/04/17 05:11:00;;;;;;;22.67;13.70;;;;;;;-145.18;100.00;60484.78;5032780;28;20029;-70
2022/04/17 05:13:26;;;;;;;23.37;14.13;;;;;;;-145.18;100.00;60484.78;5030571;28;20025;-69
2022/04/17 05:15:51;;;;;;;24.47;14.43;;;;;;;-145.18;100.00;60484.78;5028476;28;20477;-69
2022/04/17 05:18:17;;;;;;;24.60;14.90;;;;;;;-145.18;100.00;60484.78;5030000;28;20017;-70
2022/04/17 05:20:42;;;;;;;22.53;14.80;;;;;;;-145.18;100.00;60484.78;5028830;28;20021;-70
2022/04/17 05:23:29;;;;;;;24.13;14.83;;;;;;;-145.18;100.00;60484.78;5028522;28;20025;-70
2022/04/17 05:26:00;;;;;;;24.17;14.00;;;;;;;-145.18;100.00;60484.78;5031430;28;20021;-70
2022/04/17 05:28:28;;;;;;;29.90;15.60;;;;;;;-145.18;100.00;60484.78;5031556;28;20025;-70
2022/04/17 05:30:54;;;;;;;23.00;15.03;;;;;;;-145.18;100.00;60484.78;5027773;28;20037;-70
2022/04/17 05:33:20;;;;;;;24.43;14.73;;;;;;;-145.18;100.00;60484.78;5028099;28;20029;-70
2022/04/17 05:35:47;;;;;;;23.10;14.33;;;;;;;-145.18;100.00;60484.78;5030450;28;20022;-70
2022/04/17 05:38:12;;;;;;;25.57;14.67;;;;;;;-145.18;100.00;60484.78;5031615;28;20025;-70
2022/04/17 05:40:41;;;;;;;27.27;14.43;;;;;;;-145.18;100.00;60484.78;5026056;28;20056;-70
2022/04/17 05:43:07;;;;;;;25.27;13.53;;;;;;;-145.18;100.00;60484.78;5029817;28;20096;-70
2022/04/17 05:45:35;;;;;;;23.13;13.73;;;;;;;-145.18;100.00;60484.78;5017314;28;20101;-70
2022/04/17 05:48:03;;;;;;;25.00;13.90;;;;;;;-145.18;100.00;60484.78;5029624;28;20036;-70
2022/04/17 05:50:28;;;;;;;21.73;12.97;;;;;;;-145.18;100.00;60484.78;5029505;28;20077;-70
2022/04/17 05:52:54;;;;;;;24.60;13.20;;;;;;;-145.18;100.00;60484.78;5027617;28;20061;-70
2022/04/17 05:55:20;;;;;;;22.43;13.50;;;;;;;-145.18;100.00;60484.78;5025216;28;20057;-70
2022/04/17 05:57:46;;;;;;;21.07;13.10;;;;;;;-145.18;100.00;60484.78;5024697;28;20083;-70
2022/04/17 06:00:12;;;;;;;23.10;13.33;;;;;;;-145.18;100.00;60484.78;5026363;28;20056;-70
2022/04/17 06:02:38;;;;;;;20.97;12.80;;;;;;;-145.18;100.00;60484.78;5029807;28;20451;-70
2022/04/17 06:05:05;;;;;;;24.93;13.10;;;;;;;-145.18;100.00;60484.78;5027761;28;20021;-70
2022/04/17 06:07:31;;;;;;;20.80;12.93;;;;;;;-145.18;100.00;60484.78;5030860;28;20047;-70
2022/04/17 06:10:01;;;;;;;21.23;13.07;;;;;;;-145.18;100.00;60484.78;5029405;28;20040;-70
2022/04/17 06:12:26;;;;;;;20.93;12.93;;;;;;;-145.18;100.00;60484.78;5030868;28;20079;-70
2022/04/17 06:14:52;;;;;;;17.80;11.43;;;;;;;-145.18;100.00;60484.78;5031104;28;20029;-70
2022/04/17 06:17:17;;;;;;;22.83;13.13;;;;;;;-145.18;100.00;60484.78;5027666;28;20045;-70
2022/04/17 06:19:43;;;;;;;21.10;12.50;;;;;;;-145.18;100.00;60484.78;5024815;28;20036;-70
2022/04/17 06:22:10;;;;;;;17.63;11.67;;;;;;;-145.18;100.00;60484.78;5025768;28;20142;-70
2022/04/17 06:24:36;;;;;;;20.63;12.03;;;;;;;-145.18;100.00;60484.78;5024023;28;20022;-70
2022/04/17 06:27:01;;;;;;;20.23;11.90;;;;;;;-145.18;100.00;60484.78;5025680;28;20025;-70
2022/04/17 06:29:27;;;;;;;23.50;12.80;;;;;;;-145.18;100.00;60484.78;5025014;28;20037;-70
2022/04/17 06:31:52;;;;;;;25.00;14.33;;;;;;;-145.18;100.00;60484.78;5026979;28;20044;-70
2022/04/17 06:34:17;;;;;;;19.30;11.87;;;;;;;-145.18;100.00;60484.78;5025177;28;20017;-70
2022/04/17 06:36:43;;;;;;;20.30;12.07;;;;;;;-145.18;100.00;60484.78;5027682;28;20029;-71
2022/04/17 06:39:08;;;;;;;17.33;11.07;;;;;;;-145.18;100.00;60484.78;5029141;28;20120;-70
2022/04/17 06:41:34;;;;;;;21.20;11.50;;;;;;;-145.18;100.00;60484.78;5028790;28;20025;-70
2022/04/17 06:43:59;;;;;;;17.03;10.90;;;;;;;-145.18;100.00;60484.78;5024821;28;20116;-70
2022/04/17 06:46:24;;;;;;;19.23;11.17;;;;;;;-145.18;100.00;60484.78;5024391;28;20081;-70
2022/04/17 06:48:49;;;;;;;15.88;10.50;;;;;;;-145.18;100.00;60484.78;5029594;28;20035;-71
2022/04/17 06:51:16;;;;;;;15.83;10.33;;;;;;;-145.18;100.00;60484.78;5027948;28;20021;-71
2022/04/17 06:53:42;;;;;;;17.40;9.75;;;;;;;-145.18;100.00;60484.78;5027065;28;20088;-71
2022/04/17 06:56:08;;;;;;;15.75;10.13;;;;;;;-145.18;100.00;60484.78;5029470;28;20033;-72
2022/04/17 06:58:33;;;;;;;16.13;9.73;;;;;;;-145.18;100.00;60484.78;5028477;28;20052;-72
2022/04/17 07:00:59;;;;;;;16.95;9.65;;;;;;;-145.18;100.00;60484.78;5021192;28;20437;-72
2022/04/17 07:03:24;;;;;;;18.77;9.90;;;;;;;-145.18;100.00;60484.78;5023341;28;20033;-72
2022/04/17 07:05:49;;;;;;;17.40;9.38;;;;;;;-145.18;100.00;60484.78;5028514;28;20478;-71
2022/04/17 07:08:15;;;;;;;14.00;9.13;;;;;;;-145.18;100.00;60484.78;5028282;28;20025;-71
2022/04/17 07:10:40;;;;;;;15.77;9.18;;;;;;;-145.18;100.00;60484.78;5023565;28;20025;-71
2022/04/17 07:13:18;;;;;;;14.82;9.02;;;;;;;-145.18;100.00;60484.78;5029160;28;20488;-72
2022/04/17 07:15:43;;;;;;;16.25;8.50;;;;;;;-145.18;100.00;60484.78;5018363;28;20405;-72
2022/04/17 07:18:09;;;;;;;16.40;8.88;;;;;;;-145.18;100.00;60484.78;5030743;28;20060;-71
2022/04/17 07:20:35;;;;;;;17.00;8.50;;;;;;;-145.18;100.00;60484.78;5024934;28;20029;-71
2022/04/17 07:23:01;;;;;;;14.57;7.95;;;;;;;-145.18;100.00;60484.78;5030793;28;20049;-71
2022/04/17 07:25:27;;;;;;;13.23;8.32;;;;;;;-145.18;100.00;60484.78;5028450;28;20021;-72
2022/04/17 07:27:53;;;;;;;14.05;8.43;;;;;;;-145.18;100.00;60484.78;5020186;28;20021;-72
2022/04/17 07:30:25;;;;;;;11.90;7.85;;;;;;;-145.18;100.00;60484.78;5019641;28;20014;-71
2022/04/17 07:32:52;;;;;;;13.60;8.15;;;;;;;-145.18;100.00;60484.78;5030237;28;20489;-71
2022/04/17 07:35:18;;;;;;;11.13;7.32;;;;;;;-145.18;100.00;60484.78;5028515;28;20030;-72
2022/04/17 07:38:02;;;;;;;12.30;8.30;;;;;;;-145.18;100.00;60484.78;5027857;28;20548;-72
2022/04/17 07:40:30;;;;;;;11.95;7.80;;;;;;;-145.18;100.00;60484.78;5026024;28;20025;-72
2022/04/17 07:42:59;;;;;;;15.20;7.22;;;;;;;-145.18;100.00;60484.78;5028448;28;20106;-73
2022/04/17 07:45:24;;;;;;;13.60;7.38;;;;;;;-145.18;100.00;60484.78;5025953;28;20033;-73
2022/04/17 07:47:50;;;;;;;12.90;7.30;;;;;;;-145.18;100.00;60484.78;5026897;28;20543;-72
2022/04/17 07:50:29;;;;;;;10.90;6.57;;;;;;;-145.18;100.00;60484.78;5019032;28;20025;-72
2022/04/17 07:52:55;;;;;;;10.40;5.40;;;;;;;-145.18;100.00;60484.78;5025481;28;20029;-72
2022/04/17 07:55:21;;;;;;;10.60;5.75;;;;;;;-145.18;100.00;60484.78;5028053;28;20036;-72
2022/04/17 08:00:44;;;;;;;9.40;5.50;;;;;;;-145.18;100.00;60484.78;5018291;28;20581;-72
2022/04/17 08:03:20;;;;;;;10.80;5.40;;;;;;;-145.18;100.00;60484.78;5024098;28;20029;-70
2022/04/17 08:05:46;;;;;;;9.38;5.70;;;;;;;-145.18;100.00;60484.78;5027149;28;20116;-72
2022/04/17 08:08:11;;;;;;;9.10;4.97;;;;;;;-145.18;100.00;60484.78;5030924;28;20438;-71
2022/04/17 08:10:38;;;;;;;8.00;4.68;;;;;;;-145.18;100.00;60484.78;5026337;28;20060;-72
2022/04/17 08:13:03;;;;;;;9.73;4.85;;;;;;;-145.18;100.00;60484.78;5028092;28;20353;-73
2022/04/17 08:15:29;;;;;;;7.45;4.15;;;;;;;-145.18;100.00;60484.78;5026414;28;20036;-73
2022/04/17 08:17:54;;;;;;;9.80;4.50;;;;;;;-145.18;100.00;60484.78;5031122;28;20665;-72
2022/04/17 08:20:20;;;;;;;9.13;4.60;;;;;;;-145.18;100.00;60484.78;5027796;28;20383;-72
2022/04/17 08:22:46;;;;;;;8.43;4.75;;;;;;;-145.18;100.00;60484.78;5031009;28;20029;-72
2022/04/17 08:25:12;;;;;;;8.75;4.65;;;;;;;-145.18;100.00;60484.78;5022040;28;20400;-73
2022/04/17 08:27:48;;;;;;;7.90;4.47;;;;;;;-145.18;100.00;60484.78;5031632;28;20473;-74
2022/04/17 08:30:19;;;;;;;7.72;4.60;;;;;;;-145.18;100.00;60484.78;5021304;28;20034;-73
2022/04/17 08:32:44;;;;;;;8.57;4.93;;;;;;;-145.18;100.00;60484.78;5014765;28;20397;-73
2022/04/17 08:35:09;;;;;;;10.60;5.07;;;;;;;-145.18;100.00;60484.78;5028703;28;20029;-73
2022/04/17 08:37:35;;;;;;;8.35;4.78;;;;;;;-145.18;100.00;60484.78;5030508;28;20037;-73
2022/04/17 08:40:01;;;;;;;7.95;4.85;;;;;;;-145.18;100.00;60484.78;5027619;28;20391;-73
2022/04/17 08:42:28;;;;;;;9.52;5.43;;;;;;;-145.18;100.00;60484.78;5031156;28;20021;-72
2022/04/17 08:44:53;;;;;;;8.32;4.60;;;;;;;-145.18;100.00;60484.78;5029003;28;20029;-73
2022/04/17 08:47:19;;;;;;;7.03;4.45;;;;;;;-145.18;100.00;60484.78;5028372;28;20032;-73
2022/04/17 08:49:46;;;;;;;8.65;4.63;;;;;;;-145.18;100.00;60484.78;5024107;28;20037;-73
2022/04/17 08:52:15;;;;;;;7.72;4.28;;;;;;;-145.18;100.00;60484.78;5030440;28;20036;-74
2022/04/17 08:54:53;;;;;;;7.50;4.40;;;;;;;-145.18;100.00;60484.78;5029244;28;20045;-73
2022/04/17 08:57:28;;;;;;;7.72;4.40;;;;;;;-145.18;100.00;60484.78;5030572;28;20037;-73
2022/04/17 08:59:54;;;;;;;6.28;3.67;;;;;;;-145.18;100.00;60484.78;5011907;28;20124;-73
2022/04/17 09:02:22;;;;;;;6.68;3.80;;;;;;;-145.18;100.00;60484.78;5025384;28;20140;-72
2022/04/17 09:04:48;;;;;;;7.18;4.55;;;;;;;-145.18;100.00;60484.78;5025255;28;20851;-73
2022/04/17 09:07:14;;;;;;;9.55;4.38;;;;;;;-145.18;100.00;60484.78;5027135;28;20017;-72
2022/04/17 09:09:51;;;;;;;7.78;3.67;;;;;;;-145.18;100.00;60484.78;5027246;28;20509;-72
2022/04/17 09:12:23;;;;;;;7.07;3.83;;;;;;;-145.18;100.00;60484.78;5032173;28;20397;-73
2022/04/17 09:14:55;;;;;;;;;;;;;;;-145.18;100.00;60484.78;5012664;28;20025;-72
2022/04/17 09:17:34;;;;;;;6.95;4.05;;;;;;;-145.18;100.00;60484.78;5028938;28;19917;-72
2022/04/17 09:20:03;;;;;;;6.65;3.60;;;;;;;-145.18;100.00;60484.78;5028109;28;20044;-73
2022/04/17 09:23:01;;;;;;;6.45;3.90;;;;;;;-145.18;100.00;60484.78;5031374;28;20090;-73
2022/04/17 09:25:30;;;;;;;6.22;3.20;;;;;;;-145.18;100.00;60484.78;5014402;28;20037;-72
2022/04/17 09:28:07;;;;;;;5.82;3.40;;;;;;;-145.18;100.00;60484.78;5029195;28;20079;-72
2022/04/17 09:30:40;;;;;;;6.00;3.10;;;;;;;-145.18;100.00;60484.78;5025632;28;20021;-72
2022/04/17 09:33:14;;;;;;;5.50;3.50;;;;;;;-145.18;100.00;60484.78;5028324;28;20279;-73
2022/04/17 09:35:52;;;;;;;6.15;3.10;;;;;;;-145.18;100.00;60484.78;5027266;28;20144;-72
2022/04/17 09:38:23;;;;;;;7.07;3.20;;;;;;;-145.18;100.00;60484.78;5027504;28;20556;-72
2022/04/17 09:40:49;;;;;;;5.00;3.00;;;;;;;-145.18;100.00;60484.78;5029610;28;20037;-72
2022/04/17 09:43:17;;;;;;;7.35;3.63;;;;;;;-145.18;100.00;60484.78;5012810;28;20532;-72
2022/04/17 09:45:59;;;;;;;4.80;3.00;;;;;;;-145.18;100.00;60484.78;5019880;28;20079;-73
2022/04/17 09:48:28;;;;;;;5.57;3.67;;;;;;;-145.18;100.00;60484.78;5029775;28;20032;-73
2022/04/17 09:50:53;;;;;;;5.70;3.13;;;;;;;-145.18;100.00;60484.78;5029040;28;20505;-73
2022/04/17 09:53:33;;;;;;;7.88;3.30;;;;;;;-145.18;100.00;60484.78;5031503;28;20112;-73
2022/04/17 09:56:06;;;;;;;5.60;3.13;;;;;;;-145.18;100.00;60484.78;5025674;28;20488;-73
2022/04/17 09:58:36;;;;;;;5.82;3.17;;;;;;;-145.18;100.00;60484.78;5004230;28;21924;-73
2022/04/17 10:01:03;;;;;;;6.25;3.28;;;;;;;-145.18;100.00;60484.78;5027308;28;20076;-72
2022/04/17 10:03:29;;;;;;;5.57;2.90;;;;;;;-145.18;100.00;60484.78;5028477;28;20106;-74
2022/04/17 10:05:55;;;;;;;4.22;2.50;;;;;;;-145.18;100.00;60484.78;5026223;28;20030;-74
2022/04/17 10:08:25;;;;;;;5.63;2.83;;;;;;;-145.18;100.00;60484.78;5031156;28;20033;-74
2022/04/17 10:10:51;;;;;;;7.35;4.28;;;;;;;-145.18;100.00;60484.78;5021751;28;20413;-71
2022/04/17 10:13:19;;;;;;;5.20;2.80;;;;;;;-145.18;100.00;60484.78;5032113;28;20025;-72
2022/04/17 10:15:47;;;;;;;4.93;2.90;;;;;;;-145.18;100.00;60484.78;5006999;28;20031;-72
2022/04/17 10:18:14;;;;;;;10.00;5.47;;;;;;;-145.18;100.00;60484.78;5012917;28;20029;-72
2022/04/17 10:20:41;;;;;;;7.65;3.10;;;;;;;-145.18;100.00;60484.78;5028894;28;20481;-72
2022/04/17 10:23:11;;;;;;;5.28;2.90;;;;;;;-145.18;100.00;60484.78;5013176;28;20036;-74
2022/04/17 10:25:39;;;;;;;5.22;2.67;;;;;;;-145.18;100.00;60484.78;5028781;28;20037;-72
2022/04/17 10:28:06;;;;;;;5.28;2.60;;;;;;;-145.18;100.00;60484.78;5026295;28;20041;-72
2022/04/17 10:31:05;;;;;;;6.63;3.17;;;;;;;-145.18;100.00;60484.78;5011120;28;20519;-72
2022/04/17 10:34:06;;;;;;;5.18;2.40;;;;;;;-145.18;100.00;60484.78;5016724;28;20030;-74
2022/04/17 10:36:53;;;;;;;7.07;4.07;;;;;;;-145.18;100.00;60484.78;5020151;28;20037;-75
2022/04/17 10:39:36;;;;;;;7.25;2.95;;;;;;;-145.18;100.00;60484.78;5017670;28;20029;-74
2022/04/17 10:42:02;;;;;;;4.28;2.40;;;;;;;-145.18;100.00;60484.78;5026776;28;20057;-74
2022/04/17 10:44:31;;;;;;;4.75;2.50;;;;;;;-145.18;100.00;60484.78;5025347;28;20103;-74
2022/04/17 10:47:06;;;;;;;7.75;2.65;;;;;;;-145.18;100.00;60484.78;5030059;28;20493;-74
2022/04/17 10:49:32;;;;;;;5.70;2.75;;;;;;;-145.18;100.00;60484.78;5021335;28;20484;-73
2022/04/17 10:52:02;;;;;;;5.00;2.53;;;;;;;-145.18;100.00;60484.78;5030046;28;20033;-74
2022/04/17 10:54:51;;;;;;;4.95;2.42;;;;;;;-145.18;100.00;60484.78;5023431;28;20045;-72
2022/04/17 10:57:23;;;;;;;5.13;2.30;;;;;;;-145.18;100.00;60484.78;5024132;28;20038;-73
2022/04/17 10:59:49;;;;;;;5.03;2.00;;;;;;;-145.18;100.00;60484.78;5021943;28;20485;-73
2022/04/17 11:02:17;;;;;;;6.53;2.25;;;;;;;-145.18;100.00;60484.78;5027285;28;20032;-71
2022/04/17 11:05:01;;;;;;;5.00;2.10;;;;;;;-145.18;100.00;60484.78;5014391;28;20025;-72
2022/04/17 11:07:29;;;;;;;4.55;2.00;;;;;;;-145.18;100.00;60484.78;5015403;28;20033;-72
2022/04/17 11:10:19;;;;;;;4.47;1.95;;;;;;;-145.18;100.00;60484.78;5015936;28;20397;-72
2022/04/17 11:12:56;;;;;;;7.03;2.40;;;;;;;-145.18;100.00;60484.78;5022876;28;20124;-72
2022/04/17 11:15:25;;;;;;;4.72;2.45;;;;;;;-145.18;100.00;60484.78;5014496;28;20030;-72
2022/04/17 11:17:51;;;;;;;4.82;2.53;;;;;;;-145.18;100.00;60484.78;5014646;28;20864;-72
2022/04/17 11:20:18;;;;;;;6.50;3.40;;;;;;;-145.18;100.00;60484.78;5023399;28;20061;-72